sensor_id;sensor_type;location;lat;lon;timestamp;pressure;altitude;pressure_sealevel;temperature;humidity
11198;BME280;5655;48.744;9.162;2023-04-26T00:02:21;96143.97;;;8.70;100.00
11198;BME280;5655;48.744;9.162;2023-04-26T00:04:51;96139.50;;;8.78;100.00
11198;BME280;5655;48.744;9.162;2023-04-26T00:07:20;96130.06;;;8.38;100.00
11198;BME280;5655;48.744;9.162;2023-04-26T00:09:46;96138.66;;;8.51;100.00
11198;BME280;5655;48.744;9.162;2023-04-26T00:12:12;96143.81;;;8.63;100.00
11198;BME280;5655;48.744;9.162;2023-04-26T00:14:37;96158.25;;;8.58;100.00
11198;BME280;5655;48.744;9.162;2023-04-26T00:17:03;96146.44;;;8.37;100.00
11198;BME280;5655;48.744;9.162;2023-04-26T00:19:29;96146.34;;;8.33;100.00
11198;BME280;5655;48.744;9.162;2023-04-26T00:21:54;96139.72;;;8.46;100.00
11198;BME280;5655;48.744;9.162;2023-04-26T00:24:20;96139.44;;;8.51;100.00
11198;BME280;5655;48.744;9.162;2023-04-26T00:26:45;96126.50;;;8.31;100.00
11198;BME280;5655;48.744;9.162;2023-04-26T00:29:10;96148.94;;;8.49;100.00
11198;BME280;5655;48.744;9.162;2023-04-26T00:31:36;96139.03;;;8.49;100.00
11198;BME280;5655;48.744;9.162;2023-04-26T00:34:01;96147.50;;;8.55;100.00
11198;BME280;5655;48.744;9.162;2023-04-26T00:36:26;96143.66;;;8.52;100.00
11198;BME280;5655;48.744;9.162;2023-04-26T00:38:51;96140.88;;;8.68;100.00
11198;BME280;5655;48.744;9.162;2023-04-26T00:41:17;96148.47;;;8.66;100.00
11198;BME280;5655;48.744;9.162;2023-04-26T00:43:42;96142.94;;;8.55;100.00
11198;BME280;5655;48.744;9.162;2023-04-26T00:46:08;96142.00;;;8.44;100.00
11198;BME280;5655;48.744;9.162;2023-04-26T00:48:35;96140.81;;;8.64;100.00
11198;BME280;5655;48.744;9.162;2023-04-26T00:51:01;96145.97;;;8.54;100.00
11198;BME280;5655;48.744;9.162;2023-04-26T00:53:26;96145.06;;;8.08;100.00
11198;BME280;5655;48.744;9.162;2023-04-26T00:55:52;96151.47;;;8.23;100.00
11198;BME280;5655;48.744;9.162;2023-04-26T00:58:18;96149.13;;;8.21;100.00
11198;BME280;5655;48.744;9.162;2023-04-26T01:00:44;96147.72;;;8.27;100.00
11198;BME280;5655;48.744;9.162;2023-04-26T01:03:10;96146.84;;;8.19;100.00
11198;BME280;5655;48.744;9.162;2023-04-26T01:05:36;96144.56;;;8.21;100.00
11198;BME280;5655;48.744;9.162;2023-04-26T01:08:02;96147.44;;;8.13;100.00
11198;BME280;5655;48.744;9.162;2023-04-26T01:10:30;96154.63;;;8.28;100.00
11198;BME280;5655;48.744;9.162;2023-04-26T01:12:56;96153.94;;;8.31;100.00
11198;BME280;5655;48.744;9.162;2023-04-26T01:15:22;96153.84;;;8.08;100.00
11198;BME280;5655;48.744;9.162;2023-04-26T01:17:48;96154.75;;;8.16;100.00
11198;BME280;5655;48.744;9.162;2023-04-26T01:20:13;96148.56;;;8.12;100.00
11198;BME280;5655;48.744;9.162;2023-04-26T01:22:39;96146.75;;;8.16;100.00
11198;BME280;5655;48.744;9.162;2023-04-26T01:25:05;96147.06;;;8.30;100.00
11198;BME280;5655;48.744;9.162;2023-04-26T01:27:33;96149.34;;;7.93;100.00
11198;BME280;5655;48.744;9.162;2023-04-26T01:29:59;96146.34;;;8.14;100.00
11198;BME280;5655;48.744;9.162;2023-04-26T01:32:25;96146.84;;;8.19;100.00
11198;BME280;5655;48.744;9.162;2023-04-26T01:34:50;96146.47;;;7.83;100.00
11198;BME280;5655;48.744;9.162;2023-04-26T01:37:16;96141.22;;;8.05;100.00
11198;BME280;5655;48.744;9.162;2023-04-26T01:39:41;96149.78;;;8.14;100.00
11198;BME280;5655;48.744;9.162;2023-04-26T01:42:06;96161.34;;;7.84;100.00
11198;BME280;5655;48.744;9.162;2023-04-26T01:44:32;96160.91;;;7.82;100.00
11198;BME280;5655;48.744;9.162;2023-04-26T01:46:57;96147.75;;;7.89;100.00
11198;BME280;5655;48.744;9.162;2023-04-26T01:49:22;96157.00;;;7.95;100.00
11198;BME280;5655;48.744;9.162;2023-04-26T01:51:48;96158.09;;;7.74;100.00
11198;BME280;5655;48.744;9.162;2023-04-26T01:54:13;96157.13;;;7.63;100.00
11198;BME280;5655;48.744;9.162;2023-04-26T01:56:38;96158.53;;;7.77;100.00
11198;BME280;5655;48.744;9.162;2023-04-26T01:59:03;96154.47;;;7.83;100.00
11198;BME280;5655;48.744;9.162;2023-04-26T02:01:29;96156.31;;;7.98;100.00
11198;BME280;5655;48.744;9.162;2023-04-26T02:03:55;96140.13;;;7.52;100.00
11198;BME280;5655;48.744;9.162;2023-04-26T02:06:20;96146.72;;;7.78;100.00
11198;BME280;5655;48.744;9.162;2023-04-26T02:08:45;96146.88;;;7.65;100.00
11198;BME280;5655;48.744;9.162;2023-04-26T02:11:11;96140.28;;;7.79;100.00
11198;BME280;5655;48.744;9.162;2023-04-26T02:13:36;96131.28;;;7.48;100.00
11198;BME280;5655;48.744;9.162;2023-04-26T02:16:02;96134.31;;;7.66;100.00
11198;BME280;5655;48.744;9.162;2023-04-26T02:18:28;96139.00;;;7.72;100.00
11198;BME280;5655;48.744;9.162;2023-04-26T02:20:54;96131.72;;;7.50;100.00
11198;BME280;5655;48.744;9.162;2023-04-26T02:23:19;96132.72;;;7.61;100.00
11198;BME280;5655;48.744;9.162;2023-04-26T02:25:45;96130.41;;;7.79;100.00
11198;BME280;5655;48.744;9.162;2023-04-26T02:28:11;96120.91;;;7.43;100.00
11198;BME280;5655;48.744;9.162;2023-04-26T02:30:37;96117.50;;;7.27;100.00
11198;BME280;5655;48.744;9.162;2023-04-26T02:33:02;96112.06;;;7.39;100.00
11198;BME280;5655;48.744;9.162;2023-04-26T02:35:28;96110.81;;;7.33;100.00
11198;BME280;5655;48.744;9.162;2023-04-26T02:37:53;96119.81;;;7.63;100.00
11198;BME280;5655;48.744;9.162;2023-04-26T02:40:19;96126.66;;;7.45;100.00
11198;BME280;5655;48.744;9.162;2023-04-26T02:42:44;96122.91;;;7.65;100.00
11198;BME280;5655;48.744;9.162;2023-04-26T02:45:10;96122.91;;;7.65;100.00
11198;BME280;5655;48.744;9.162;2023-04-26T02:47:35;96100.03;;;8.03;100.00
11198;BME280;5655;48.744;9.162;2023-04-26T02:50:03;96109.38;;;8.54;100.00
11198;BME280;5655;48.744;9.162;2023-04-26T02:52:29;96121.38;;;8.87;100.00
11198;BME280;5655;48.744;9.162;2023-04-26T02:54:55;96125.28;;;8.09;100.00
11198;BME280;5655;48.744;9.162;2023-04-26T02:57:20;96126.78;;;8.06;100.00
11198;BME280;5655;48.744;9.162;2023-04-26T02:59:46;96124.47;;;8.05;100.00
11198;BME280;5655;48.744;9.162;2023-04-26T03:02:11;96123.59;;;8.20;100.00
11198;BME280;5655;48.744;9.162;2023-04-26T03:04:36;96117.16;;;7.83;100.00
11198;BME280;5655;48.744;9.162;2023-04-26T03:07:03;96111.13;;;7.66;100.00
11198;BME280;5655;48.744;9.162;2023-04-26T03:09:28;96108.28;;;7.59;100.00
11198;BME280;5655;48.744;9.162;2023-04-26T03:11:54;96117.56;;;7.65;100.00
11198;BME280;5655;48.744;9.162;2023-04-26T03:14:19;96120.19;;;8.00;100.00
11198;BME280;5655;48.744;9.162;2023-04-26T03:16:44;96121.22;;;7.57;100.00
11198;BME280;5655;48.744;9.162;2023-04-26T03:19:10;96114.16;;;7.30;100.00
11198;BME280;5655;48.744;9.162;2023-04-26T03:21:35;96111.47;;;7.30;100.00
11198;BME280;5655;48.744;9.162;2023-04-26T03:24:01;96105.56;;;7.21;100.00
11198;BME280;5655;48.744;9.162;2023-04-26T03:26:26;96117.06;;;7.60;100.00
11198;BME280;5655;48.744;9.162;2023-04-26T03:28:51;96121.47;;;7.33;100.00
11198;BME280;5655;48.744;9.162;2023-04-26T03:31:16;96111.75;;;7.25;100.00
11198;BME280;5655;48.744;9.162;2023-04-26T03:33:42;96115.97;;;7.26;100.00
11198;BME280;5655;48.744;9.162;2023-04-26T03:36:07;96117.06;;;7.25;100.00
11198;BME280;5655;48.744;9.162;2023-04-26T03:38:33;96115.09;;;7.22;100.00
11198;BME280;5655;48.744;9.162;2023-04-26T03:40:58;96109.78;;;7.22;100.00
11198;BME280;5655;48.744;9.162;2023-04-26T03:43:24;96107.72;;;7.31;100.00
11198;BME280;5655;48.744;9.162;2023-04-26T03:45:49;96105.16;;;7.19;100.00
11198;BME280;5655;48.744;9.162;2023-04-26T03:48:15;96099.50;;;7.05;100.00
11198;BME280;5655;48.744;9.162;2023-04-26T03:50:41;96104.00;;;7.36;100.00
11198;BME280;5655;48.744;9.162;2023-04-26T03:53:09;96101.22;;;7.13;100.00
11198;BME280;5655;48.744;9.162;2023-04-26T03:55:34;96099.69;;;7.12;100.00
11198;BME280;5655;48.744;9.162;2023-04-26T03:58:00;96108.00;;;6.95;100.00
11198;BME280;5655;48.744;9.162;2023-04-26T04:00:27;96112.44;;;7.22;100.00
11198;BME280;5655;48.744;9.162;2023-04-26T04:02:52;96110.63;;;7.26;100.00
11198;BME280;5655;48.744;9.162;2023-04-26T04:05:17;96111.56;;;6.99;100.00
11198;BME280;5655;48.744;9.162;2023-04-26T04:07:43;96117.56;;;7.30;100.00
11198;BME280;5655;48.744;9.162;2023-04-26T04:10:09;96115.81;;;7.19;100.00
11198;BME280;5655;48.744;9.162;2023-04-26T04:12:35;96114.69;;;7.20;100.00
11198;BME280;5655;48.744;9.162;2023-04-26T04:15:00;96116.47;;;7.32;100.00
11198;BME280;5655;48.744;9.162;2023-04-26T04:17:26;96113.16;;;7.19;100.00
11198;BME280;5655;48.744;9.162;2023-04-26T04:19:51;96115.41;;;7.01;100.00
11198;BME280;5655;48.744;9.162;2023-04-26T04:22:16;96106.59;;;7.16;100.00
11198;BME280;5655;48.744;9.162;2023-04-26T04:24:42;96102.63;;;7.07;100.00
11198;BME280;5655;48.744;9.162;2023-04-26T04:27:08;96105.88;;;7.16;100.00
11198;BME280;5655;48.744;9.162;2023-04-26T04:29:33;96120.03;;;7.20;100.00
11198;BME280;5655;48.744;9.162;2023-04-26T04:31:59;96118.72;;;7.14;100.00
11198;BME280;5655;48.744;9.162;2023-04-26T04:34:24;96113.59;;;7.05;100.00
11198;BME280;5655;48.744;9.162;2023-04-26T04:36:50;96114.63;;;7.01;100.00
11198;BME280;5655;48.744;9.162;2023-04-26T04:39:15;96119.66;;;7.21;100.00
11198;BME280;5655;48.744;9.162;2023-04-26T04:41:42;96117.72;;;7.03;100.00
11198;BME280;5655;48.744;9.162;2023-04-26T04:44:14;96116.88;;;6.99;100.00
11198;BME280;5655;48.744;9.162;2023-04-26T04:46:41;96117.34;;;7.20;100.00
11198;BME280;5655;48.744;9.162;2023-04-26T04:49:06;96114.72;;;6.89;100.00
11198;BME280;5655;48.744;9.162;2023-04-26T04:51:33;96116.53;;;6.84;100.00
11198;BME280;5655;48.744;9.162;2023-04-26T04:53:59;96115.25;;;6.94;100.00
11198;BME280;5655;48.744;9.162;2023-04-26T04:56:32;96121.41;;;6.82;100.00
11198;BME280;5655;48.744;9.162;2023-04-26T04:58:58;96107.41;;;7.01;100.00
11198;BME280;5655;48.744;9.162;2023-04-26T05:01:23;96118.25;;;6.93;100.00
11198;BME280;5655;48.744;9.162;2023-04-26T05:03:48;96120.38;;;6.87;100.00
11198;BME280;5655;48.744;9.162;2023-04-26T05:06:14;96121.78;;;6.81;100.00
11198;BME280;5655;48.744;9.162;2023-04-26T05:08:39;96123.47;;;6.89;100.00
11198;BME280;5655;48.744;9.162;2023-04-26T05:11:04;96125.78;;;6.91;100.00
11198;BME280;5655;48.744;9.162;2023-04-26T05:13:30;96131.88;;;7.07;100.00
11198;BME280;5655;48.744;9.162;2023-04-26T05:15:55;96133.06;;;7.09;100.00
11198;BME280;5655;48.744;9.162;2023-04-26T05:18:20;96133.41;;;7.08;100.00
11198;BME280;5655;48.744;9.162;2023-04-26T05:20:46;96138.41;;;7.44;100.00
11198;BME280;5655;48.744;9.162;2023-04-26T05:23:12;96143.28;;;7.58;100.00
11198;BME280;5655;48.744;9.162;2023-04-26T05:25:37;96151.63;;;7.56;100.00
11198;BME280;5655;48.744;9.162;2023-04-26T05:28:02;96144.38;;;7.38;100.00
11198;BME280;5655;48.744;9.162;2023-04-26T05:30:28;96155.97;;;7.29;100.00
11198;BME280;5655;48.744;9.162;2023-04-26T05:32:53;96166.63;;;7.14;100.00
11198;BME280;5655;48.744;9.162;2023-04-26T05:35:20;96161.31;;;7.14;100.00
11198;BME280;5655;48.744;9.162;2023-04-26T05:37:46;96163.75;;;7.38;100.00
11198;BME280;5655;48.744;9.162;2023-04-26T05:40:11;96170.22;;;7.37;100.00
11198;BME280;5655;48.744;9.162;2023-04-26T05:42:37;96166.88;;;7.59;100.00
11198;BME280;5655;48.744;9.162;2023-04-26T05:45:03;96154.16;;;7.34;100.00
11198;BME280;5655;48.744;9.162;2023-04-26T05:47:28;96173.09;;;7.63;100.00
11198;BME280;5655;48.744;9.162;2023-04-26T05:49:54;96177.31;;;7.84;100.00
11198;BME280;5655;48.744;9.162;2023-04-26T05:52:19;96164.66;;;7.26;100.00
11198;BME280;5655;48.744;9.162;2023-04-26T05:54:44;96169.56;;;7.59;100.00
11198;BME280;5655;48.744;9.162;2023-04-26T05:57:09;96174.16;;;7.78;100.00
11198;BME280;5655;48.744;9.162;2023-04-26T05:59:35;96171.06;;;7.41;100.00
11198;BME280;5655;48.744;9.162;2023-04-26T06:02:01;96167.25;;;7.58;100.00
11198;BME280;5655;48.744;9.162;2023-04-26T06:04:26;96176.41;;;7.41;100.00
11198;BME280;5655;48.744;9.162;2023-04-26T06:06:51;96176.31;;;7.72;100.00
11198;BME280;5655;48.744;9.162;2023-04-26T06:09:16;96179.94;;;7.64;100.00
11198;BME280;5655;48.744;9.162;2023-04-26T06:11:42;96179.56;;;7.82;100.00
11198;BME280;5655;48.744;9.162;2023-04-26T06:14:07;96181.94;;;7.87;100.00
11198;BME280;5655;48.744;9.162;2023-04-26T06:16:32;96190.25;;;8.20;100.00
11198;BME280;5655;48.744;9.162;2023-04-26T06:18:58;96191.34;;;8.00;100.00
11198;BME280;5655;48.744;9.162;2023-04-26T06:21:23;96195.44;;;8.13;100.00
11198;BME280;5655;48.744;9.162;2023-04-26T06:23:48;96187.91;;;7.80;100.00
11198;BME280;5655;48.744;9.162;2023-04-26T06:26:14;96201.31;;;8.03;100.00
11198;BME280;5655;48.744;9.162;2023-04-26T06:28:39;96203.88;;;8.15;100.00
11198;BME280;5655;48.744;9.162;2023-04-26T06:31:04;96219.59;;;8.39;100.00
11198;BME280;5655;48.744;9.162;2023-04-26T06:33:30;96217.72;;;8.82;100.00
11198;BME280;5655;48.744;9.162;2023-04-26T06:35:56;96231.34;;;8.54;100.00
11198;BME280;5655;48.744;9.162;2023-04-26T06:38:21;96226.94;;;8.27;100.00
11198;BME280;5655;48.744;9.162;2023-04-26T06:40:47;96231.50;;;8.26;100.00
11198;BME280;5655;48.744;9.162;2023-04-26T06:43:12;96234.00;;;8.35;100.00
11198;BME280;5655;48.744;9.162;2023-04-26T06:45:37;96238.13;;;8.51;100.00
11198;BME280;5655;48.744;9.162;2023-04-26T06:48:03;96238.38;;;8.27;100.00
11198;BME280;5655;48.744;9.162;2023-04-26T06:50:29;96242.00;;;8.54;100.00
11198;BME280;5655;48.744;9.162;2023-04-26T06:52:54;96242.94;;;8.27;100.00
11198;BME280;5655;48.744;9.162;2023-04-26T06:55:20;96240.81;;;8.32;100.00
11198;BME280;5655;48.744;9.162;2023-04-26T06:57:45;96234.50;;;9.01;100.00
11198;BME280;5655;48.744;9.162;2023-04-26T07:00:11;96238.50;;;8.92;100.00
11198;BME280;5655;48.744;9.162;2023-04-26T07:02:37;96240.19;;;8.81;100.00
11198;BME280;5655;48.744;9.162;2023-04-26T07:05:03;96235.28;;;8.83;100.00
11198;BME280;5655;48.744;9.162;2023-04-26T07:07:28;96217.63;;;8.55;100.00
11198;BME280;5655;48.744;9.162;2023-04-26T07:09:53;96228.44;;;9.04;100.00
11198;BME280;5655;48.744;9.162;2023-04-26T07:12:19;96225.63;;;8.97;100.00
11198;BME280;5655;48.744;9.162;2023-04-26T07:14:45;96228.22;;;8.94;100.00
11198;BME280;5655;48.744;9.162;2023-04-26T07:17:10;96233.13;;;8.88;100.00
11198;BME280;5655;48.744;9.162;2023-04-26T07:19:35;96224.13;;;8.77;100.00
11198;BME280;5655;48.744;9.162;2023-04-26T07:22:01;96219.88;;;8.95;100.00
11198;BME280;5655;48.744;9.162;2023-04-26T07:24:27;96230.72;;;8.83;100.00
11198;BME280;5655;48.744;9.162;2023-04-26T07:26:52;96224.94;;;9.23;100.00
11198;BME280;5655;48.744;9.162;2023-04-26T07:29:18;96220.91;;;9.10;100.00
11198;BME280;5655;48.744;9.162;2023-04-26T07:31:44;96230.44;;;9.34;100.00
11198;BME280;5655;48.744;9.162;2023-04-26T07:34:09;96220.09;;;9.06;100.00
11198;BME280;5655;48.744;9.162;2023-04-26T07:36:34;96225.16;;;8.92;100.00
11198;BME280;5655;48.744;9.162;2023-04-26T07:38:59;96216.56;;;9.25;100.00
11198;BME280;5655;48.744;9.162;2023-04-26T07:41:25;96222.13;;;8.93;100.00
11198;BME280;5655;48.744;9.162;2023-04-26T07:43:50;96218.41;;;9.21;100.00
11198;BME280;5655;48.744;9.162;2023-04-26T07:46:16;96222.09;;;9.35;100.00
11198;BME280;5655;48.744;9.162;2023-04-26T07:48:41;96216.41;;;9.14;100.00
11198;BME280;5655;48.744;9.162;2023-04-26T07:51:08;96219.63;;;9.49;100.00
11198;BME280;5655;48.744;9.162;2023-04-26T07:53:34;96219.56;;;9.46;100.00
11198;BME280;5655;48.744;9.162;2023-04-26T07:55:59;96213.94;;;9.77;100.00
11198;BME280;5655;48.744;9.162;2023-04-26T07:58:25;96216.28;;;9.56;100.00
11198;BME280;5655;48.744;9.162;2023-04-26T08:00:50;96219.63;;;9.76;100.00
11198;BME280;5655;48.744;9.162;2023-04-26T08:03:15;96229.91;;;9.74;100.00
11198;BME280;5655;48.744;9.162;2023-04-26T08:05:42;96227.38;;;10.11;100.00
11198;BME280;5655;48.744;9.162;2023-04-26T08:08:07;96223.63;;;9.89;100.00
11198;BME280;5655;48.744;9.162;2023-04-26T08:10:33;96218.13;;;10.31;100.00
11198;BME280;5655;48.744;9.162;2023-04-26T08:12:58;96225.47;;;10.11;100.00
11198;BME280;5655;48.744;9.162;2023-04-26T08:15:27;96235.22;;;9.70;100.00
11198;BME280;5655;48.744;9.162;2023-04-26T08:17:53;96235.66;;;10.02;100.00
11198;BME280;5655;48.744;9.162;2023-04-26T08:20:18;96234.28;;;9.85;100.00
11198;BME280;5655;48.744;9.162;2023-04-26T08:22:43;96238.53;;;9.64;100.00
11198;BME280;5655;48.744;9.162;2023-04-26T08:25:09;96236.91;;;10.08;100.00
11198;BME280;5655;48.744;9.162;2023-04-26T08:27:34;96243.78;;;10.35;100.00
11198;BME280;5655;48.744;9.162;2023-04-26T08:30:00;96235.81;;;9.86;100.00
11198;BME280;5655;48.744;9.162;2023-04-26T08:32:26;96232.38;;;9.86;100.00
11198;BME280;5655;48.744;9.162;2023-04-26T08:34:51;96242.09;;;9.71;100.00
11198;BME280;5655;48.744;9.162;2023-04-26T08:37:17;96242.13;;;10.01;100.00
11198;BME280;5655;48.744;9.162;2023-04-26T08:39:42;96238.00;;;9.77;100.00
11198;BME280;5655;48.744;9.162;2023-04-26T08:42:15;96232.03;;;10.43;100.00
11198;BME280;5655;48.744;9.162;2023-04-26T08:44:42;96232.66;;;10.33;100.00
11198;BME280;5655;48.744;9.162;2023-04-26T08:47:20;96241.34;;;10.57;100.00
11198;BME280;5655;48.744;9.162;2023-04-26T08:49:51;96239.97;;;10.70;100.00
11198;BME280;5655;48.744;9.162;2023-04-26T08:52:21;96233.38;;;10.60;100.00
11198;BME280;5655;48.744;9.162;2023-04-26T08:54:49;96239.25;;;10.13;100.00
11198;BME280;5655;48.744;9.162;2023-04-26T08:57:16;96242.19;;;10.31;100.00
11198;BME280;5655;48.744;9.162;2023-04-26T08:59:42;96241.09;;;10.35;100.00
11198;BME280;5655;48.744;9.162;2023-04-26T09:02:21;96236.03;;;10.60;100.00
11198;BME280;5655;48.744;9.162;2023-04-26T09:04:48;96240.78;;;10.74;100.00
11198;BME280;5655;48.744;9.162;2023-04-26T09:07:20;96252.41;;;10.88;100.00
11198;BME280;5655;48.744;9.162;2023-04-26T09:09:48;96244.69;;;10.83;100.00
11198;BME280;5655;48.744;9.162;2023-04-26T09:12:19;96240.41;;;10.75;100.00
11198;BME280;5655;48.744;9.162;2023-04-26T09:14:45;96243.69;;;10.62;100.00
11198;BME280;5655;48.744;9.162;2023-04-26T09:17:28;96244.47;;;11.39;100.00
11198;BME280;5655;48.744;9.162;2023-04-26T09:19:56;96240.13;;;10.84;100.00
11198;BME280;5655;48.744;9.162;2023-04-26T09:22:35;96239.47;;;10.94;100.00
11198;BME280;5655;48.744;9.162;2023-04-26T09:25:03;96240.66;;;10.63;100.00
11198;BME280;5655;48.744;9.162;2023-04-26T09:27:37;96236.78;;;10.94;100.00
11198;BME280;5655;48.744;9.162;2023-04-26T09:32:56;96229.69;;;11.12;100.00
11198;BME280;5655;48.744;9.162;2023-04-26T09:38:05;96227.13;;;10.86;100.00
11198;BME280;5655;48.744;9.162;2023-04-26T09:40:36;96234.38;;;11.22;100.00
11198;BME280;5655;48.744;9.162;2023-04-26T09:43:13;96224.72;;;11.14;100.00
11198;BME280;5655;48.744;9.162;2023-04-26T09:45:53;96226.28;;;11.63;100.00
11198;BME280;5655;48.744;9.162;2023-04-26T09:48:21;96229.97;;;11.48;100.00
11198;BME280;5655;48.744;9.162;2023-04-26T09:50:48;96235.38;;;11.51;100.00
11198;BME280;5655;48.744;9.162;2023-04-26T09:53:27;96230.72;;;11.45;100.00
11198;BME280;5655;48.744;9.162;2023-04-26T09:55:57;96227.53;;;11.28;100.00
11198;BME280;5655;48.744;9.162;2023-04-26T09:58:29;96227.56;;;11.32;100.00
11198;BME280;5655;48.744;9.162;2023-04-26T10:00:55;96227.41;;;11.14;100.00
11198;BME280;5655;48.744;9.162;2023-04-26T10:03:22;96232.59;;;11.41;100.00
11198;BME280;5655;48.744;9.162;2023-04-26T10:05:47;96222.13;;;11.69;100.00
11198;BME280;5655;48.744;9.162;2023-04-26T10:08:13;96228.03;;;11.92;100.00
11198;BME280;5655;48.744;9.162;2023-04-26T10:10:39;96216.50;;;11.85;100.00
11198;BME280;5655;48.744;9.162;2023-04-26T10:13:05;96213.63;;;12.21;100.00
11198;BME280;5655;48.744;9.162;2023-04-26T10:15:31;96208.50;;;12.89;100.00
11198;BME280;5655;48.744;9.162;2023-04-26T10:17:56;96201.63;;;12.98;100.00
11198;BME280;5655;48.744;9.162;2023-04-26T10:20:23;96210.03;;;13.04;100.00
11198;BME280;5655;48.744;9.162;2023-04-26T10:22:52;96209.34;;;13.46;100.00
11198;BME280;5655;48.744;9.162;2023-04-26T10:25:19;96205.50;;;13.40;100.00
11198;BME280;5655;48.744;9.162;2023-04-26T10:27:45;96207.81;;;13.24;100.00
11198;BME280;5655;48.744;9.162;2023-04-26T10:30:15;96214.69;;;13.17;100.00
11198;BME280;5655;48.744;9.162;2023-04-26T10:35:28;96203.94;;;13.88;100.00
11198;BME280;5655;48.744;9.162;2023-04-26T10:40:32;96214.19;;;12.73;100.00
11198;BME280;5655;48.744;9.162;2023-04-26T10:45:35;96203.50;;;12.80;100.00
11198;BME280;5655;48.744;9.162;2023-04-26T10:48:15;96199.34;;;13.43;100.00
11198;BME280;5655;48.744;9.162;2023-04-26T10:56:10;96198.59;;;13.10;100.00
11198;BME280;5655;48.744;9.162;2023-04-26T10:58:39;96195.53;;;13.54;100.00
11198;BME280;5655;48.744;9.162;2023-04-26T11:01:17;96195.13;;;13.21;100.00
11198;BME280;5655;48.744;9.162;2023-04-26T11:06:25;96193.97;;;13.18;100.00
11198;BME280;5655;48.744;9.162;2023-04-26T11:08:52;96187.81;;;13.17;100.00
11198;BME280;5655;48.744;9.162;2023-04-26T11:11:18;96190.13;;;13.12;100.00
11198;BME280;5655;48.744;9.162;2023-04-26T11:13:44;96189.38;;;13.33;100.00
11198;BME280;5655;48.744;9.162;2023-04-26T11:16:11;96182.47;;;13.49;100.00
11198;BME280;5655;48.744;9.162;2023-04-26T11:18:42;96184.75;;;13.51;100.00
11198;BME280;5655;48.744;9.162;2023-04-26T11:21:08;96184.38;;;13.35;100.00
11198;BME280;5655;48.744;9.162;2023-04-26T11:23:34;96189.38;;;13.26;100.00
11198;BME280;5655;48.744;9.162;2023-04-26T11:26:04;96174.41;;;13.28;100.00
11198;BME280;5655;48.744;9.162;2023-04-26T11:28:31;96167.84;;;13.57;100.00
11198;BME280;5655;48.744;9.162;2023-04-26T11:30:57;96161.75;;;13.29;100.00
11198;BME280;5655;48.744;9.162;2023-04-26T11:33:23;96154.75;;;13.77;100.00
11198;BME280;5655;48.744;9.162;2023-04-26T11:35:50;96140.34;;;14.30;92.12
11198;BME280;5655;48.744;9.162;2023-04-26T11:38:16;96133.28;;;14.61;82.13
11198;BME280;5655;48.744;9.162;2023-04-26T11:40:42;96145.69;;;15.10;89.11
11198;BME280;5655;48.744;9.162;2023-04-26T11:43:08;96134.69;;;14.83;82.75
11198;BME280;5655;48.744;9.162;2023-04-26T11:45:36;96137.94;;;15.12;85.37
11198;BME280;5655;48.744;9.162;2023-04-26T11:48:03;96136.13;;;15.46;69.41
11198;BME280;5655;48.744;9.162;2023-04-26T11:50:30;96128.81;;;14.98;73.85
11198;BME280;5655;48.744;9.162;2023-04-26T11:52:58;96133.69;;;15.62;84.50
11198;BME280;5655;48.744;9.162;2023-04-26T11:55:26;96125.50;;;16.07;73.07
11198;BME280;5655;48.744;9.162;2023-04-26T11:57:52;96126.13;;;15.84;90.21
11198;BME280;5655;48.744;9.162;2023-04-26T12:00:18;96123.63;;;16.34;77.63
11198;BME280;5655;48.744;9.162;2023-04-26T12:02:45;96115.94;;;15.99;65.01
11198;BME280;5655;48.744;9.162;2023-04-26T12:05:20;96121.72;;;16.61;68.31
11198;BME280;5655;48.744;9.162;2023-04-26T12:07:51;96114.72;;;16.67;67.34
11198;BME280;5655;48.744;9.162;2023-04-26T12:10:22;96117.84;;;16.02;66.67
11198;BME280;5655;48.744;9.162;2023-04-26T12:12:51;96116.03;;;16.25;65.66
11198;BME280;5655;48.744;9.162;2023-04-26T12:15:18;96125.50;;;16.07;67.94
11198;BME280;5655;48.744;9.162;2023-04-26T12:17:59;96123.78;;;15.52;73.50
11198;BME280;5655;48.744;9.162;2023-04-26T12:20:27;96123.72;;;15.56;74.07
11198;BME280;5655;48.744;9.162;2023-04-26T12:23:00;96124.94;;;15.48;79.08
11198;BME280;5655;48.744;9.162;2023-04-26T12:25:25;96114.22;;;14.96;75.12
11198;BME280;5655;48.744;9.162;2023-04-26T12:27:51;96116.00;;;15.13;84.28
11198;BME280;5655;48.744;9.162;2023-04-26T12:30:16;96105.88;;;16.03;75.60
11198;BME280;5655;48.744;9.162;2023-04-26T12:32:42;96115.25;;;16.25;69.52
11198;BME280;5655;48.744;9.162;2023-04-26T12:35:07;96114.75;;;16.33;69.04
11198;BME280;5655;48.744;9.162;2023-04-26T12:37:33;96114.22;;;15.81;68.63
11198;BME280;5655;48.744;9.162;2023-04-26T12:39:58;96113.13;;;15.75;71.48
11198;BME280;5655;48.744;9.162;2023-04-26T12:42:24;96112.72;;;16.11;71.78
11198;BME280;5655;48.744;9.162;2023-04-26T12:44:49;96105.78;;;16.40;62.60
11198;BME280;5655;48.744;9.162;2023-04-26T12:47:14;96113.38;;;16.49;61.58
11198;BME280;5655;48.744;9.162;2023-04-26T12:49:40;96105.66;;;17.04;63.05
11198;BME280;5655;48.744;9.162;2023-04-26T12:52:05;96110.19;;;15.97;64.68
11198;BME280;5655;48.744;9.162;2023-04-26T12:54:31;96107.25;;;16.18;65.18
11198;BME280;5655;48.744;9.162;2023-04-26T12:56:56;96104.78;;;16.27;69.38
11198;BME280;5655;48.744;9.162;2023-04-26T12:59:21;96101.19;;;16.37;68.65
11198;BME280;5655;48.744;9.162;2023-04-26T13:01:47;96103.63;;;16.28;68.38
11198;BME280;5655;48.744;9.162;2023-04-26T13:04:12;96108.22;;;15.63;73.12
11198;BME280;5655;48.744;9.162;2023-04-26T13:06:37;96107.03;;;16.02;69.01
11198;BME280;5655;48.744;9.162;2023-04-26T13:09:03;96106.44;;;15.46;78.97
11198;BME280;5655;48.744;9.162;2023-04-26T13:11:28;96109.91;;;15.87;73.04
11198;BME280;5655;48.744;9.162;2023-04-26T13:13:53;96101.81;;;15.87;73.91
11198;BME280;5655;48.744;9.162;2023-04-26T13:16:19;96101.31;;;16.30;75.13
11198;BME280;5655;48.744;9.162;2023-04-26T13:18:44;96096.97;;;16.06;69.87
11198;BME280;5655;48.744;9.162;2023-04-26T13:21:10;96097.22;;;16.45;79.34
11198;BME280;5655;48.744;9.162;2023-04-26T13:23:35;96093.97;;;15.97;65.40
11198;BME280;5655;48.744;9.162;2023-04-26T13:26:01;96099.91;;;15.84;68.40